Mystic, South Dakota
Current Conditions -  °F | °C
As of 10:53 AM on Friday 21 Nov 2014 (Local Time) from KCUT Reporting Station
Clear Clear  
Wind Chill: 38°   Ceiling: Unl
Heat Index: 42°   Visibility: 10mi
Dew Point: 21°   Wind: 7mph
Humidity: 43%   Direction: 270°W
Pressure: 29.84"   Gusts: NA
Location:  43.9317°N, 103.745°W
Report Text: KCUT 211753Z AUTO 27006KT 10SM CLR 06/M06 A2984 RMK AO2 SLP102 T00561061 10056 20000 58004
Loading
Personal Weather Stations






























Interactive Weather Map New forecast layout! Learn more

10-Day Weather Forecast

Advertisements
Track Severe Weather on mobile